Time;durP1;ratioP1;P1;durP2;ratioP2;P2;SDS_P1;SDS_P2;PMS_P1;PMS_P2;Temp;Humidity;BMP_temperature;BMP_pressure;BME280_temperature;BME280_humidity;BME280_pressure;Samples;Min_cycle;Max_cycle;Signal;HPM_P1;HPM_P2
2021/08/29 00:00:16;;;;;;;14.57;5.32;;;;;;;14.03;63.94;100155.56;4983411;28;20045;-75
2021/08/29 00:02:42;;;;;;;13.70;4.88;;;;;;;14.01;64.04;100147.75;4978645;28;20069;-77
2021/08/29 00:05:08;;;;;;;7.00;4.90;;;;;;;14.00;64.22;100148.63;5010516;28;20670;-77
2021/08/29 00:07:34;;;;;;;7.32;4.63;;;;;;;13.79;64.20;100113.22;4978490;28;20042;-76
2021/08/29 00:10:00;;;;;;;10.30;4.80;;;;;;;14.00;64.69;100139.94;4983120;28;20046;-76
2021/08/29 00:12:26;;;;;;;7.00;4.55;;;;;;;14.01;64.29;100146.91;4996489;28;20038;-76
2021/08/29 00:14:53;;;;;;;14.02;4.60;;;;;;;13.90;64.63;100120.94;4994481;28;20488;-75
2021/08/29 00:17:20;;;;;;;7.65;5.03;;;;;;;13.90;64.60;100122.66;4995180;28;20073;-74
2021/08/29 00:19:47;;;;;;;8.38;4.60;;;;;;;13.80;64.61;100117.56;5011548;28;20049;-75
2021/08/29 00:22:16;;;;;;;11.93;4.68;;;;;;;13.78;64.45;100101.06;4979163;28;20037;-75
2021/08/29 00:24:42;;;;;;;8.73;5.07;;;;;;;13.99;64.98;100117.28;5012013;28;20049;-76
2021/08/29 00:27:08;;;;;;;10.35;4.60;;;;;;;14.22;64.62;100137.78;4994866;28;20045;-77
2021/08/29 00:29:37;;;;;;;6.25;4.15;;;;;;;14.19;64.56;100129.13;4978150;28;20038;-78
2021/08/29 00:32:03;;;;;;;9.50;4.80;;;;;;;14.27;63.99;100135.94;4978468;28;20042;-77
2021/08/29 00:34:29;;;;;;;14.13;5.18;;;;;;;14.26;64.22;100123.75;4994160;28;20061;-79
2021/08/29 00:36:55;;;;;;;7.97;4.60;;;;;;;14.26;63.89;100123.75;4978246;28;20398;-78
2021/08/29 00:39:21;;;;;;;11.55;5.15;;;;;;;14.12;64.18;100097.84;4994787;28;20077;-77
2021/08/29 00:41:47;;;;;;;17.42;4.68;;;;;;;14.27;64.13;100119.38;4993554;28;20072;-77
2021/08/29 00:44:18;;;;;;;10.10;5.28;;;;;;;14.25;63.92;100108.06;4961815;28;20451;-76
2021/08/29 00:46:45;;;;;;;8.80;5.13;;;;;;;14.25;63.86;100103.69;5011341;28;20139;-77
2021/08/29 00:49:18;;;;;;;11.18;4.93;;;;;;;14.34;64.14;100125.38;4977587;28;20080;-76
2021/08/29 00:51:54;;;;;;;8.82;4.93;;;;;;;14.30;64.12;100114.06;4960944;28;20034;-76
2021/08/29 00:54:22;;;;;;;12.75;5.97;;;;;;;14.38;63.86;100100.84;5010800;28;20057;-77
2021/08/29 00:56:48;;;;;;;9.43;5.43;;;;;;;14.40;63.74;100094.69;4993666;28;20108;-75
2021/08/29 00:59:14;;;;;;;11.75;5.57;;;;;;;14.41;63.75;100093.81;4998259;28;20525;-75
2021/08/29 01:01:55;;;;;;;11.07;6.40;;;;;;;14.45;63.13;100105.91;4977807;28;20100;-76
2021/08/29 01:04:30;;;;;;;14.32;6.55;;;;;;;14.45;63.72;100107.69;4993700;28;20038;-78
2021/08/29 01:07:04;;;;;;;12.20;7.97;;;;;;;14.36;63.13;100093.03;4992956;28;20046;-76
2021/08/29 01:09:55;;;;;;;11.65;7.45;;;;;;;14.40;63.35;100099.06;4996002;28;20100;-76
2021/08/29 01:12:28;;;;;;;11.90;8.63;;;;;;;14.33;63.42;100084.38;4993938;28;20045;-75
2021/08/29 01:15:05;;;;;;;11.20;8.18;;;;;;;14.33;63.58;100084.38;4994615;28;20042;-76
2021/08/29 01:17:35;;;;;;;16.92;8.10;;;;;;;14.42;63.36;100087.66;4994168;28;20045;-77
2021/08/29 01:20:00;;;;;;;15.88;9.98;;;;;;;14.52;63.29;100100.56;4994411;28;20085;-77
2021/08/29 01:22:27;;;;;;;18.13;10.85;;;;;;;14.45;63.57;100066.63;4994008;28;20088;-76
2021/08/29 01:24:53;;;;;;;24.83;16.05;;;;;;;14.49;62.74;100077.06;4994282;28;20042;-77
2021/08/29 01:27:48;;;;;;;22.08;14.30;;;;;;;14.56;63.32;100095.25;5011375;28;20081;-76
2021/08/29 01:30:14;;;;;;;20.85;15.05;;;;;;;14.49;63.07;100079.66;5000064;28;20042;-76
2021/08/29 01:32:42;;;;;;;18.65;12.32;;;;;;;14.52;63.04;100092.69;4999438;28;20132;-76
2021/08/29 01:35:10;;;;;;;21.70;15.18;;;;;;;14.36;63.16;100073.81;4977843;28;20042;-76
2021/08/29 01:37:51;;;;;;;18.73;13.15;;;;;;;14.55;63.26;100090.91;4993882;28;20458;-76
2021/08/29 01:40:17;;;;;;;19.45;12.52;;;;;;;14.51;63.19;100076.16;4987681;28;20042;-76
2021/08/29 01:42:43;;;;;;;16.63;8.40;;;;;;;14.50;63.03;100087.50;4995668;28;20503;-76
2021/08/29 01:45:10;;;;;;;13.75;8.20;;;;;;;14.53;63.33;100089.19;4993600;28;20037;-76
2021/08/29 01:47:39;;;;;;;13.65;7.97;;;;;;;14.48;63.05;100099.78;4993694;28;20141;-77
2021/08/29 01:50:06;;;;;;;12.20;7.60;;;;;;;14.39;62.87;100087.72;4993482;28;20046;-76
2021/08/29 01:52:33;;;;;;;12.38;7.43;;;;;;;14.34;63.42;100089.56;4993816;28;20113;-76
2021/08/29 01:55:19;;;;;;;13.70;7.40;;;;;;;14.31;63.18;100077.41;4968580;28;20111;-76
2021/08/29 01:58:17;;;;;;;11.60;7.22;;;;;;;14.45;63.49;100103.28;4981185;28;20080;-77
2021/08/29 02:00:51;;;;;;;10.60;7.80;;;;;;;14.34;63.30;100086.94;4984577;28;20460;-77
2021/08/29 02:03:20;;;;;;;13.68;7.22;;;;;;;14.40;63.57;100094.69;4997374;28;20509;-75
2021/08/29 02:06:06;;;;;;;17.55;7.38;;;;;;;14.38;63.15;100083.38;4996569;28;20050;-75
2021/08/29 02:08:36;;;;;;;9.63;7.10;;;;;;;14.27;63.33;100073.13;4996360;28;20103;-76
2021/08/29 02:11:06;;;;;;;14.52;7.13;;;;;;;14.51;63.19;100093.59;4995810;28;20513;-75
2021/08/29 02:13:34;;;;;;;10.38;6.90;;;;;;;14.60;63.41;100091.66;4996417;28;20394;-76
2021/08/29 02:16:13;;;;;;;14.20;7.70;;;;;;;14.67;63.17;100086.28;4980222;28;20543;-76
2021/08/29 02:18:42;;;;;;;11.23;7.28;;;;;;;14.85;62.90;100100.78;4980152;28;20034;-76
2021/08/29 02:21:10;;;;;;;11.77;7.72;;;;;;;14.75;62.96;100069.53;4995871;28;20049;-75
2021/08/29 02:23:37;;;;;;;12.70;8.63;;;;;;;14.99;62.81;100097.88;4996305;28;20046;-76
2021/08/29 02:26:03;;;;;;;18.35;9.90;;;;;;;14.96;62.86;100092.69;4980080;28;20052;-78
2021/08/29 02:28:30;;;;;;;16.50;10.73;;;;;;;14.86;62.23;100073.69;4996028;28;20046;-76
2021/08/29 02:30:56;;;;;;;16.55;9.60;;;;;;;14.87;62.66;100088.53;4996593;28;20041;-77
2021/08/29 02:33:23;;;;;;;17.30;9.80;;;;;;;14.81;62.32;100080.78;4980580;28;20532;-76
2021/08/29 02:35:52;;;;;;;15.55;9.90;;;;;;;14.88;63.02;100087.63;4997073;28;20041;-77
2021/08/29 02:38:23;;;;;;;19.35;10.00;;;;;;;14.94;62.36;100091.88;4996422;28;20087;-77
2021/08/29 02:40:49;;;;;;;17.38;10.48;;;;;;;14.98;62.62;100089.13;5014764;28;20048;-78
2021/08/29 02:43:19;;;;;;;15.68;9.50;;;;;;;14.81;62.48;100072.94;4996375;28;20096;-78
2021/08/29 02:45:46;;;;;;;18.77;10.13;;;;;;;14.79;61.89;100096.53;4996521;28;20561;-76
2021/08/29 02:48:18;;;;;;;18.08;9.90;;;;;;;14.66;62.56;100098.53;4996313;28;20121;-77
2021/08/29 02:50:47;;;;;;;16.00;9.88;;;;;;;14.50;62.61;100089.25;4980311;28;20046;-76
2021/08/29 02:53:17;;;;;;;17.67;8.77;;;;;;;14.44;62.66;100088.50;4995470;28;20057;-77
2021/08/29 02:55:48;;;;;;;11.95;8.30;;;;;;;14.46;62.85;100094.53;4996158;28;20049;-76
2021/08/29 02:58:14;;;;;;;15.82;8.90;;;;;;;14.44;63.07;100098.97;4995267;28;20073;-76
2021/08/29 03:00:57;;;;;;;15.15;9.13;;;;;;;14.43;63.04;100101.59;4995538;28;20081;-76
2021/08/29 03:03:44;;;;;;;16.85;8.90;;;;;;;14.41;63.44;100106.88;4998484;28;20053;-76
2021/08/29 03:06:10;;;;;;;12.90;8.55;;;;;;;14.37;62.99;100101.72;4979620;28;20042;-75
2021/08/29 03:08:36;;;;;;;15.82;8.57;;;;;;;14.35;63.19;100093.91;4962740;28;20046;-76
2021/08/29 03:11:03;;;;;;;16.92;8.27;;;;;;;14.31;63.26;100087.88;4979515;28;20037;-77
2021/08/29 03:13:30;;;;;;;12.45;7.85;;;;;;;14.47;63.33;100105.91;4979481;28;20053;-77
2021/08/29 03:16:02;;;;;;;19.65;7.85;;;;;;;14.51;63.28;100115.41;4979120;28;20040;-76
2021/08/29 03:18:49;;;;;;;14.45;8.27;;;;;;;14.56;63.12;100100.50;4997618;28;20050;-75
2021/08/29 03:21:34;;;;;;;10.98;7.18;;;;;;;14.56;63.29;100099.59;4995676;28;20041;-76
2021/08/29 03:24:01;;;;;;;16.23;8.50;;;;;;;14.62;62.54;100104.72;4980146;28;20425;-76
2021/08/29 03:26:27;;;;;;;12.00;8.07;;;;;;;14.56;62.67;100102.22;4979662;28;20057;-75
2021/08/29 03:28:58;;;;;;;12.07;8.17;;;;;;;14.49;63.11;100098.00;4979307;28;20037;-76
2021/08/29 03:31:25;;;;;;;11.05;7.90;;;;;;;14.68;63.28;100122.94;4995385;28;20052;-76
2021/08/29 03:33:53;;;;;;;13.18;8.30;;;;;;;14.81;63.48;100122.69;4978857;28;20042;-76
2021/08/29 03:36:23;;;;;;;15.93;8.85;;;;;;;14.95;62.79;100127.66;5012975;28;20413;-76
2021/08/29 03:38:50;;;;;;;14.10;7.80;;;;;;;14.95;62.66;100127.66;4996297;28;20089;-76
2021/08/29 03:41:18;;;;;;;14.60;7.70;;;;;;;14.99;62.92;100124.06;4979669;28;20041;-76
2021/08/29 03:43:46;;;;;;;11.52;7.53;;;;;;;15.09;62.47;100109.00;4995658;28;20104;-76
2021/08/29 03:46:15;;;;;;;16.48;8.57;;;;;;;15.28;62.87;100115.53;4978493;28;20044;-77
2021/08/29 03:48:41;;;;;;;18.42;8.30;;;;;;;15.29;62.03;100101.53;4982439;28;20042;-77
2021/08/29 03:51:08;;;;;;;13.55;7.70;;;;;;;15.33;62.45;100104.94;4964353;28;20038;-77
2021/08/29 03:53:37;;;;;;;14.02;8.27;;;;;;;15.45;61.51;100111.66;4992229;28;20112;-77
2021/08/29 03:56:04;;;;;;;13.98;8.25;;;;;;;15.53;61.93;100120.22;4994469;28;20425;-76
2021/08/29 03:58:35;;;;;;;13.55;8.35;;;;;;;15.46;61.57;100089.78;4996252;28;20041;-80
2021/08/29 04:01:02;;;;;;;16.23;8.27;;;;;;;15.57;61.57;100115.75;4998408;28;20037;-77
2021/08/29 04:03:28;;;;;;;14.93;8.88;;;;;;;15.68;61.44;100103.19;4994434;28;20284;-77
2021/08/29 04:06:13;;;;;;;13.07;8.35;;;;;;;15.84;61.51;100093.19;4978261;28;20133;-76
2021/08/29 04:08:45;;;;;;;15.55;8.10;;;;;;;15.74;60.31;100082.06;4994498;28;20049;-77
2021/08/29 04:11:12;;;;;;;13.52;8.63;;;;;;;15.79;60.83;100100.31;5012190;28;20052;-77
2021/08/29 04:13:39;;;;;;;16.30;8.75;;;;;;;15.70;60.92;100090.91;4994114;28;20049;-78
2021/08/29 04:16:20;;;;;;;14.43;8.05;;;;;;;15.94;61.13;100091.22;4994072;28;20045;-78
2021/08/29 04:18:51;;;;;;;11.60;8.10;;;;;;;15.99;60.59;100075.38;4994594;28;20129;-76
2021/08/29 04:21:23;;;;;;;12.35;8.07;;;;;;;16.14;60.17;100103.81;4996323;28;20052;-77
2021/08/29 04:23:59;;;;;;;13.05;8.40;;;;;;;16.15;59.81;100091.53;4995369;28;20041;-78
2021/08/29 04:27:09;;;;;;;12.68;7.97;;;;;;;16.37;60.32;100086.56;4978236;28;20034;-76
2021/08/29 04:29:49;;;;;;;18.65;8.40;;;;;;;15.94;60.01;99926.78;5012707;28;20041;-76
2021/08/29 04:32:15;;;;;;;12.73;7.97;;;;;;;16.88;58.73;100035.13;5012133;28;20034;-76
2021/08/29 04:34:41;;;;;;;13.75;8.30;;;;;;;17.08;57.85;100060.84;4978466;28;20037;-77
2021/08/29 04:37:24;;;;;;;13.05;8.20;;;;;;;17.07;57.81;100074.00;4980145;28;20092;-76
2021/08/29 04:39:54;;;;;;;12.18;8.60;;;;;;;17.15;58.06;100090.41;4978555;28;20144;-76
2021/08/29 04:42:22;;;;;;;13.75;8.00;;;;;;;16.99;57.71;100071.63;4994227;28;20112;-77
2021/08/29 04:44:49;;;;;;;12.90;8.80;;;;;;;17.00;58.16;100084.72;4993829;28;20042;-76
2021/08/29 04:47:15;;;;;;;17.00;8.50;;;;;;;16.93;57.97;100083.16;4977383;28;20044;-77
2021/08/29 04:49:46;;;;;;;13.20;8.38;;;;;;;16.89;58.13;100085.91;4978234;28;20038;-77
2021/08/29 04:52:19;;;;;;;13.32;7.78;;;;;;;17.01;58.24;100099.56;4993584;28;20472;-78
2021/08/29 04:54:45;;;;;;;14.80;8.02;;;;;;;17.36;57.69;100093.28;4996746;28;20081;-77
2021/08/29 04:57:13;;;;;;;14.07;8.23;;;;;;;17.65;57.53;100094.09;4995046;28;20042;-76
2021/08/29 04:59:39;;;;;;;15.48;8.85;;;;;;;17.77;57.19;100091.03;4981249;28;20104;-77
2021/08/29 05:02:05;;;;;;;11.75;8.15;;;;;;;18.08;56.70;100070.69;4993045;28;20096;-77
2021/08/29 05:04:30;;;;;;;12.00;8.07;;;;;;;18.54;55.90;100079.56;5011690;28;20041;-77
2021/08/29 05:07:01;;;;;;;13.57;7.75;;;;;;;19.03;55.34;100107.63;4993056;28;20046;-78
2021/08/29 05:09:29;;;;;;;11.75;7.95;;;;;;;19.15;54.77;100064.94;4993815;28;20049;-77
2021/08/29 05:11:55;;;;;;;13.43;7.30;;;;;;;19.83;53.80;100075.31;4961333;28;20042;-77
2021/08/29 05:14:22;;;;;;;12.68;7.88;;;;;;;20.30;52.92;100079.44;4977640;28;20042;-77
2021/08/29 05:16:48;;;;;;;11.32;7.72;;;;;;;20.14;51.94;100057.28;4977973;28;20060;-77
2021/08/29 05:19:15;;;;;;;12.45;7.85;;;;;;;20.44;51.68;100077.97;4995015;28;20092;-77
2021/08/29 05:21:41;;;;;;;12.50;7.45;;;;;;;20.51;50.56;100082.06;4994847;28;20046;-77
2021/08/29 05:24:26;;;;;;;11.68;7.43;;;;;;;20.80;50.35;100042.84;4994324;28;20037;-77
2021/08/29 05:26:54;;;;;;;11.95;7.50;;;;;;;21.18;49.75;100056.03;4993153;28;20574;-77
2021/08/29 05:29:21;;;;;;;14.00;7.85;;;;;;;21.28;49.54;100043.19;4964215;28;20706;-76
2021/08/29 05:31:48;;;;;;;10.40;7.85;;;;;;;21.62;48.01;100028.28;4981242;28;20042;-77
2021/08/29 05:34:22;;;;;;;9.70;6.80;;;;;;;22.62;48.32;100068.97;4997372;28;20065;-76
2021/08/29 05:36:49;;;;;;;13.20;7.50;;;;;;;24.52;46.33;100058.84;5015004;28;20041;-78
2021/08/29 05:39:16;;;;;;;10.88;7.35;;;;;;;26.37;42.75;100066.13;4964433;28;20076;-78
2021/08/29 05:41:43;;;;;;;13.85;8.20;;;;;;;27.72;40.57;100053.66;4981043;28;20054;-77
2021/08/29 05:44:27;;;;;;;17.45;7.60;;;;;;;28.45;38.70;100066.72;4999181;28;20483;-76
2021/08/29 05:46:53;;;;;;;10.00;7.50;;;;;;;28.09;36.63;100044.59;4996774;28;20072;-76
2021/08/29 05:49:22;;;;;;;11.32;7.20;;;;;;;27.55;36.76;100056.78;4997147;28;20788;-76
2021/08/29 05:51:49;;;;;;;9.93;7.20;;;;;;;27.03;37.82;100046.34;5010976;28;20097;-77
2021/08/29 05:54:15;;;;;;;11.02;7.28;;;;;;;28.35;37.04;100033.69;5017281;28;20134;-77
2021/08/29 05:56:41;;;;;;;10.50;7.03;;;;;;;29.51;34.54;100015.31;5000377;28;20045;-76
2021/08/29 05:59:07;;;;;;;10.85;6.88;;;;;;;30.31;33.97;100013.75;5022613;28;20117;-77
2021/08/29 06:01:33;;;;;;;10.82;7.53;;;;;;;31.09;32.15;100033.69;4996131;28;20136;-77
2021/08/29 06:03:59;;;;;;;8.85;6.80;;;;;;;32.25;31.36;100022.84;5034303;28;20538;-77
2021/08/29 06:07:04;;;;;;;8.48;7.07;;;;;;;33.46;29.12;100028.97;4937080;29;20043;-76
2021/08/29 06:09:30;;;;;;;10.23;7.05;;;;;;;33.42;28.53;100031.16;4937549;29;20109;-77
2021/08/29 06:11:55;;;;;;;10.15;6.85;;;;;;;34.37;27.69;100022.25;4984286;28;20084;-76
2021/08/29 06:14:21;;;;;;;11.48;7.20;;;;;;;34.78;27.24;100013.41;5016161;28;20045;-77
2021/08/29 06:16:52;;;;;;;;;;;;;;;35.18;27.00;100016.34;4985224;28;20044;-77
2021/08/29 06:19:26;;;;;;;9.32;6.43;;;;;;;35.38;25.65;100021.41;4985185;28;19921;-77
2021/08/29 06:21:52;;;;;;;12.18;6.88;;;;;;;34.57;25.91;100015.72;5000355;28;20500;-76
2021/08/29 06:24:18;;;;;;;12.43;6.65;;;;;;;35.54;25.35;100012.47;5016700;28;20073;-76
2021/08/29 06:27:02;;;;;;;8.85;6.53;;;;;;;37.04;24.17;100006.22;5002067;28;20531;-76
2021/08/29 06:29:57;;;;;;;9.13;6.38;;;;;;;37.48;23.52;100018.22;5020581;28;20052;-77
2021/08/29 06:32:41;;;;;;;8.35;6.25;;;;;;;38.17;22.05;100026.28;5033888;28;20084;-79
2021/08/29 06:35:19;;;;;;;12.85;6.45;;;;;;;38.06;22.30;100006.75;4996586;28;20065;-78
2021/08/29 06:37:51;;;;;;;9.48;6.53;;;;;;;38.85;21.79;100020.63;5002383;28;20064;-77
2021/08/29 06:40:18;;;;;;;9.55;6.82;;;;;;;39.65;21.12;100028.63;4993627;28;20038;-77
2021/08/29 06:42:44;;;;;;;10.30;7.07;;;;;;;40.40;19.52;100003.47;4986091;28;20061;-79
2021/08/29 06:45:28;;;;;;;10.95;6.90;;;;;;;39.48;19.91;100041.69;5028521;28;20136;-77
2021/08/29 06:48:19;;;;;;;8.57;6.53;;;;;;;38.03;20.83;100007.13;5035604;28;20091;-77
2021/08/29 06:51:04;;;;;;;9.18;6.57;;;;;;;36.58;21.15;100028.69;5001035;28;20136;-75
2021/08/29 06:53:49;;;;;;;10.30;6.95;;;;;;;35.55;22.05;100003.31;5032159;28;20496;-76
2021/08/29 06:56:33;;;;;;;9.10;6.82;;;;;;;34.53;23.18;100031.44;5019852;28;20060;-76
2021/08/29 06:59:07;;;;;;;10.45;7.32;;;;;;;34.00;24.08;100025.28;5000838;28;20045;-77
2021/08/29 07:01:45;;;;;;;7.95;6.32;;;;;;;33.16;23.90;100001.44;5000604;28;20584;-77
2021/08/29 07:04:12;;;;;;;8.73;6.10;;;;;;;32.51;25.66;99921.72;5001086;28;20493;-77
2021/08/29 07:06:51;;;;;;;10.48;7.28;;;;;;;33.11;24.65;99945.28;4999633;28;20041;-78
2021/08/29 07:09:54;;;;;;;10.88;6.50;;;;;;;34.83;24.18;99989.44;5033992;28;20045;-77
2021/08/29 07:12:22;;;;;;;9.95;6.97;;;;;;;34.74;23.89;100003.97;5016279;28;20034;-79
2021/08/29 07:15:10;;;;;;;11.45;7.32;;;;;;;35.32;23.43;100016.66;5015590;28;20042;-78
2021/08/29 07:17:36;;;;;;;11.45;7.47;;;;;;;36.71;22.32;100009.13;5000630;28;20131;-79
2021/08/29 07:20:08;;;;;;;9.18;6.57;;;;;;;37.30;21.76;99985.13;4999267;28;20037;-81
2021/08/29 07:23:09;;;;;;;9.95;6.70;;;;;;;39.12;20.63;99993.69;5019031;28;20090;-78
2021/08/29 07:26:19;;;;;;;12.63;7.00;;;;;;;39.58;19.21;99976.03;4947004;28;20059;-79
2021/08/29 07:29:05;;;;;;;12.15;6.70;;;;;;;38.85;19.52;99917.31;5014744;28;20137;-80
2021/08/29 07:32:20;;;;;;;10.70;7.70;;;;;;;37.60;20.33;99969.75;5018787;28;20038;-80
2021/08/29 07:34:48;;;;;;;10.10;7.75;;;;;;;37.67;21.24;100002.41;4998805;28;20143;-78
2021/08/29 07:37:44;;;;;;;10.90;7.65;;;;;;;36.66;21.47;100005.28;5015286;28;20091;-80
2021/08/29 07:40:25;;;;;;;7.72;6.90;;;;;;;35.02;22.93;99997.44;4997303;28;20591;-78
2021/08/29 07:43:08;;;;;;;13.93;7.03;;;;;;;34.23;23.62;100028.25;4998598;28;20131;-79
2021/08/29 07:45:34;;;;;;;10.63;7.05;;;;;;;33.01;24.21;99995.75;4981236;28;20053;-75
2021/08/29 07:47:59;;;;;;;9.60;7.00;;;;;;;32.22;25.38;99998.06;5015445;28;20059;-76
2021/08/29 07:50:25;;;;;;;11.23;7.40;;;;;;;31.78;25.42;100010.28;4982641;28;20041;-79
2021/08/29 07:53:05;;;;;;;12.20;7.65;;;;;;;32.44;26.09;100021.91;5016295;28;20049;-78
2021/08/29 07:55:56;;;;;;;8.82;6.72;;;;;;;34.69;25.29;100009.84;4975845;28;20053;-78
2021/08/29 07:58:29;;;;;;;14.00;7.28;;;;;;;35.39;23.95;99948.22;4971760;28;20038;-80
2021/08/29 08:01:03;;;;;;;11.30;6.63;;;;;;;36.01;22.94;99900.69;4986975;28;20096;-79
2021/08/29 08:03:38;;;;;;;12.13;7.25;;;;;;;36.90;21.31;99871.44;4981251;28;20045;-79
2021/08/29 08:06:40;;;;;;;11.48;6.55;;;;;;;37.75;21.25;99844.91;4989543;28;20049;-79
2021/08/29 08:09:41;;;;;;;12.02;7.35;;;;;;;38.39;19.32;99865.06;5014956;28;20108;-86
2021/08/29 08:12:26;;;;;;;12.23;7.85;;;;;;;37.36;21.04;99905.75;4982751;28;20054;-78
2021/08/29 08:14:52;;;;;;;12.38;7.60;;;;;;;38.46;20.35;99865.13;5000022;28;20041;-84
2021/08/29 08:17:54;;;;;;;11.18;6.90;;;;;;;39.82;19.50;99884.88;4980851;28;20587;-81
2021/08/29 08:21:12;;;;;;;10.35;7.57;;;;;;;40.70;18.54;99890.53;4982434;28;20054;-84
2021/08/29 08:24:21;;;;;;;11.13;6.78;;;;;;;42.03;17.86;99956.81;5015815;28;20128;-80
2021/08/29 08:27:12;;;;;;;12.15;7.28;;;;;;;41.47;18.22;99969.13;5013775;28;20048;-81
2021/08/29 08:29:57;;;;;;;8.48;6.97;;;;;;;40.71;17.93;99925.78;4990607;28;20237;-80
2021/08/29 08:32:58;;;;;;;17.42;6.85;;;;;;;39.97;18.59;99881.97;5013144;28;20048;-80
2021/08/29 08:36:08;;;;;;;10.95;7.07;;;;;;;40.18;18.42;99872.81;4971916;28;20035;-80
2021/08/29 08:38:56;;;;;;;10.05;6.50;;;;;;;40.26;18.83;99907.22;4970985;28;20057;-81
2021/08/29 08:41:44;;;;;;;12.85;7.78;;;;;;;39.34;18.73;99838.59;4955115;28;20554;-75
2021/08/29 08:44:28;;;;;;;12.32;6.72;;;;;;;40.54;19.11;99908.94;4957782;28;20512;-77
2021/08/29 08:47:19;;;;;;;10.05;7.97;;;;;;;41.31;18.04;99933.06;4979512;28;20046;-79
2021/08/29 08:50:13;;;;;;;12.88;7.25;;;;;;;40.19;17.94;99936.28;4960763;28;20053;-79
2021/08/29 08:53:02;;;;;;;12.60;8.00;;;;;;;39.42;19.07;99933.63;4978311;28;20550;-79
2021/08/29 08:55:47;;;;;;;;;;;;;;;38.99;20.37;99940.03;4979031;28;20069;-79
2021/08/29 08:58:39;;;;;;;10.55;7.35;;;;;;;39.30;18.93;99949.66;4993630;28;19921;-78
2021/08/29 09:01:32;;;;;;;12.43;7.32;;;;;;;38.99;18.89;99945.47;4952995;28;20420;-78
2021/08/29 09:04:18;;;;;;;10.30;7.57;;;;;;;38.85;19.15;99923.59;4964569;28;20549;-78
2021/08/29 09:06:51;;;;;;;10.15;6.80;;;;;;;40.34;19.15;99928.84;5000666;28;20053;-76
2021/08/29 09:09:21;;;;;;;11.85;7.43;;;;;;;40.71;18.39;99935.81;4981208;28;20049;-79
2021/08/29 09:11:51;;;;;;;12.18;7.43;;;;;;;40.53;18.67;99936.38;4994809;28;20062;-80
2021/08/29 09:14:20;;;;;;;11.35;7.57;;;;;;;40.71;17.63;99942.13;4994311;28;20417;-78
2021/08/29 09:16:52;;;;;;;9.20;6.53;;;;;;;40.45;18.48;99937.44;5012006;28;20049;-79
2021/08/29 09:19:27;;;;;;;7.85;6.15;;;;;;;40.81;18.51;99942.53;4978751;28;20037;-79
2021/08/29 09:21:58;;;;;;;9.43;6.38;;;;;;;40.30;18.39;99924.00;4978474;28;20038;-79
2021/08/29 09:24:30;;;;;;;10.98;6.45;;;;;;;38.91;19.09;99921.13;4962579;28;20132;-79
2021/08/29 09:27:37;;;;;;;14.88;6.93;;;;;;;37.29;20.04;99837.00;4979478;28;20045;-79
2021/08/29 09:30:23;;;;;;;10.45;6.05;;;;;;;38.64;20.45;99910.84;4959447;28;20038;-77
2021/08/29 09:33:03;;;;;;;8.70;6.90;;;;;;;39.27;19.11;99888.31;4944025;28;20581;-79
2021/08/29 09:35:34;;;;;;;9.13;6.72;;;;;;;39.71;18.26;99901.75;4943207;28;20034;-78
2021/08/29 09:38:21;;;;;;;11.07;6.70;;;;;;;38.03;19.84;99874.09;4962177;28;20045;-80
2021/08/29 09:41:22;;;;;;;8.45;6.13;;;;;;;39.49;19.85;99890.97;4952673;28;20514;-80
2021/08/29 09:44:20;;;;;;;7.10;6.15;;;;;;;39.29;18.31;99839.16;4961335;28;20047;-79
2021/08/29 09:47:06;;;;;;;12.43;6.63;;;;;;;36.38;20.71;99816.16;4974922;28;20089;-78
2021/08/29 09:49:58;;;;;;;8.60;6.40;;;;;;;35.85;21.86;99839.34;4960620;28;20080;-79
2021/08/29 09:53:19;;;;;;;12.52;7.05;;;;;;;37.09;21.33;99940.59;4987901;28;20137;-77
2021/08/29 09:56:21;;;;;;;8.93;6.43;;;;;;;35.97;21.23;99847.09;4947693;28;20141;-81
2021/08/29 09:59:42;;;;;;;8.07;6.28;;;;;;;36.51;21.96;99986.25;4944933;28;20133;-77
2021/08/29 10:02:34;;;;;;;9.15;6.45;;;;;;;35.20;23.24;99925.09;4938921;29;20429;-81
2021/08/29 10:05:12;;;;;;;9.30;6.80;;;;;;;34.33;24.21;99987.63;4969959;28;20137;-80
2021/08/29 10:07:57;;;;;;;13.93;6.80;;;;;;;33.07;25.71;99954.72;4994752;28;20069;-80
2021/08/29 10:10:29;;;;;;;11.00;6.63;;;;;;;32.66;26.64;99974.03;4997821;28;20046;-78
2021/08/29 10:13:02;;;;;;;12.07;7.35;;;;;;;31.77;27.78;99962.03;5014251;28;20057;-77
2021/08/29 10:15:33;;;;;;;11.18;7.18;;;;;;;31.52;27.67;99941.00;5016813;28;20041;-78
2021/08/29 10:18:17;;;;;;;14.52;7.10;;;;;;;31.19;28.67;99971.91;5019008;28;20460;-79
2021/08/29 10:21:10;;;;;;;9.50;6.80;;;;;;;31.15;29.35;99949.88;5019934;28;20536;-79
2021/08/29 10:23:40;;;;;;;9.35;6.47;;;;;;;31.35;28.84;99963.25;5018258;28;20044;-78
2021/08/29 10:26:08;;;;;;;11.15;7.20;;;;;;;30.78;29.15;99947.88;5017596;28;20448;-76
2021/08/29 10:29:07;;;;;;;12.38;7.15;;;;;;;30.03;30.84;99962.56;5001550;28;20062;-77
2021/08/29 10:32:06;;;;;;;13.50;6.45;;;;;;;29.79;31.47;99970.03;5000033;28;20045;-78
2021/08/29 10:34:37;;;;;;;10.18;6.85;;;;;;;29.38;32.08;99962.78;4997537;28;20145;-78
2021/08/29 10:37:11;;;;;;;12.73;7.05;;;;;;;29.00;32.57;99956.97;4998461;28;20046;-77
2021/08/29 10:39:52;;;;;;;11.23;5.88;;;;;;;28.77;32.90;99934.84;4982319;28;20046;-78
2021/08/29 10:42:30;;;;;;;7.25;6.13;;;;;;;28.44;33.49;99963.34;4982646;28;20107;-79
2021/08/29 10:45:18;;;;;;;;;;;;;;;28.30;33.75;99971.66;5013865;28;20045;-78
2021/08/29 10:47:49;;;;;;;;;;;;;;;27.68;33.91;99976.53;5026544;28;19924;-80
2021/08/29 10:50:34;;;;;;;9.85;5.78;;;;;;;27.14;35.18;99981.47;5010115;28;19921;-80
2021/08/29 10:53:38;;;;;;;8.93;6.50;;;;;;;26.81;36.49;99975.03;4973148;28;20041;-81
2021/08/29 10:56:23;;;;;;;11.93;6.83;;;;;;;27.00;36.83;99980.69;4944513;28;20140;-79
2021/08/29 10:59:08;;;;;;;13.20;6.55;;;;;;;26.95;36.98;99971.31;4942697;28;20766;-80
2021/08/29 11:02:10;;;;;;;19.20;11.50;;;;;;;27.02;37.13;99949.41;4938584;29;20071;-79
2021/08/29 11:04:56;;;;;;;38.25;24.52;;;;;;;27.43;36.97;99967.72;4966322;28;20054;-80
2021/08/29 11:07:48;;;;;;;51.80;32.60;;;;;;;27.64;35.98;99955.38;4940148;28;20043;-81
2021/08/29 11:10:37;;;;;;;39.97;24.90;;;;;;;27.42;37.16;99963.34;4955560;28;20062;-80
2021/08/29 11:13:31;;;;;;;31.92;18.58;;;;;;;27.53;37.37;99968.72;4939309;28;20035;-78
2021/08/29 11:16:18;;;;;;;19.08;9.77;;;;;;;27.40;37.70;99974.13;4937465;28;20074;-78
2021/08/29 11:19:02;;;;;;;11.20;6.10;;;;;;;27.25;37.11;99978.84;4958963;28;20046;-77
2021/08/29 11:21:38;;;;;;;12.80;6.07;;;;;;;26.86;37.78;99978.19;4956074;28;20478;-79
2021/08/29 11:24:54;;;;;;;9.63;6.03;;;;;;;26.27;38.98;99980.63;4936624;28;20157;-78
2021/08/29 11:27:39;;;;;;;12.05;5.80;;;;;;;26.13;39.31;99983.44;4968901;28;20424;-78
2021/08/29 11:30:35;;;;;;;14.18;6.90;;;;;;;26.15;39.63;99982.34;4998883;28;20049;-78
2021/08/29 11:33:08;;;;;;;10.40;6.53;;;;;;;25.95;40.12;99983.75;4979253;28;20557;-81
2021/08/29 11:35:44;;;;;;;9.60;6.22;;;;;;;25.76;40.04;99984.19;4963320;28;20061;-77
2021/08/29 11:38:37;;;;;;;9.60;6.00;;;;;;;25.34;41.63;99959.50;4993565;28;20077;-78
2021/08/29 11:41:20;;;;;;;10.52;5.85;;;;;;;25.35;41.43;99987.84;4977745;28;20506;-76
2021/08/29 11:43:55;;;;;;;8.75;5.72;;;;;;;25.48;41.76;99982.56;4992528;28;20042;-78
2021/08/29 11:46:37;;;;;;;13.20;5.50;;;;;;;25.45;41.89;99973.00;4959495;28;20066;-78
2021/08/29 11:49:13;;;;;;;16.60;5.72;;;;;;;25.42;41.98;99976.69;4975343;28;20045;-77
2021/08/29 11:51:52;;;;;;;;;;;;;;;25.54;42.14;99969.69;4962476;28;20486;-77
2021/08/29 11:54:22;;;;;;;10.88;6.30;;;;;;;25.83;41.24;99956.16;4968038;28;19921;-77
2021/08/29 11:57:00;;;;;;;10.18;7.05;;;;;;;25.96;41.53;99960.59;4994611;28;20045;-77
2021/08/29 11:59:37;;;;;;;11.40;6.13;;;;;;;25.92;41.24;99948.47;4993809;28;20088;-77
2021/08/29 12:02:51;;;;;;;9.48;6.00;;;;;;;26.25;41.53;99976.38;5022267;28;20037;-78
2021/08/29 12:05:23;;;;;;;14.43;7.00;;;;;;;25.67;41.27;99852.47;5004235;28;20056;-76